sensor_id;sensor_type;location;lat;lon;timestamp;temperature;humidity
14188;DHT22;7175;51.978;5.330;2022-10-16T00:00:58;13.80;99.90
14188;DHT22;7175;51.978;5.330;2022-10-16T00:03:26;13.80;99.90
14188;DHT22;7175;51.978;5.330;2022-10-16T00:05:59;13.80;99.90
14188;DHT22;7175;51.978;5.330;2022-10-16T00:08:29;13.90;99.90
14188;DHT22;7175;51.978;5.330;2022-10-16T00:11:03;13.90;99.90
14188;DHT22;7175;51.978;5.330;2022-10-16T00:13:32;13.80;99.90
14188;DHT22;7175;51.978;5.330;2022-10-16T00:16:01;13.90;99.90
14188;DHT22;7175;51.978;5.330;2022-10-16T00:18:30;13.90;99.90
14188;DHT22;7175;51.978;5.330;2022-10-16T00:21:02;13.90;99.90
14188;DHT22;7175;51.978;5.330;2022-10-16T00:23:32;13.90;99.90
14188;DHT22;7175;51.978;5.330;2022-10-16T00:26:02;13.90;99.90
14188;DHT22;7175;51.978;5.330;2022-10-16T00:28:31;14.00;99.90
14188;DHT22;7175;51.978;5.330;2022-10-16T00:31:02;14.00;99.90
14188;DHT22;7175;51.978;5.330;2022-10-16T00:33:31;14.00;99.90
14188;DHT22;7175;51.978;5.330;2022-10-16T00:35:59;14.00;99.90
14188;DHT22;7175;51.978;5.330;2022-10-16T00:38:27;14.00;99.90
14188;DHT22;7175;51.978;5.330;2022-10-16T00:40:57;13.90;99.90
14188;DHT22;7175;51.978;5.330;2022-10-16T00:43:40;13.90;99.90
14188;DHT22;7175;51.978;5.330;2022-10-16T00:46:19;14.00;99.90
14188;DHT22;7175;51.978;5.330;2022-10-16T00:48:51;14.10;99.90
14188;DHT22;7175;51.978;5.330;2022-10-16T00:51:25;14.10;99.90
14188;DHT22;7175;51.978;5.330;2022-10-16T00:53:55;14.10;99.90
14188;DHT22;7175;51.978;5.330;2022-10-16T00:56:24;14.10;99.90
14188;DHT22;7175;51.978;5.330;2022-10-16T00:58:53;14.10;99.90
14188;DHT22;7175;51.978;5.330;2022-10-16T01:01:21;14.10;99.90
14188;DHT22;7175;51.978;5.330;2022-10-16T01:03:49;14.10;99.90
14188;DHT22;7175;51.978;5.330;2022-10-16T01:06:25;14.10;99.90
14188;DHT22;7175;51.978;5.330;2022-10-16T01:09:10;14.10;99.90
14188;DHT22;7175;51.978;5.330;2022-10-16T01:11:48;14.20;99.90
14188;DHT22;7175;51.978;5.330;2022-10-16T01:14:23;14.20;99.90
14188;DHT22;7175;51.978;5.330;2022-10-16T01:16:59;14.20;99.90
14188;DHT22;7175;51.978;5.330;2022-10-16T01:19:50;14.20;99.90
14188;DHT22;7175;51.978;5.330;2022-10-16T01:22:33;14.20;99.90
14188;DHT22;7175;51.978;5.330;2022-10-16T01:25:09;14.20;99.90
14188;DHT22;7175;51.978;5.330;2022-10-16T01:27:42;14.20;99.90
14188;DHT22;7175;51.978;5.330;2022-10-16T01:30:17;14.20;99.90
14188;DHT22;7175;51.978;5.330;2022-10-16T01:32:50;14.20;99.90
14188;DHT22;7175;51.978;5.330;2022-10-16T01:35:22;14.20;99.90
14188;DHT22;7175;51.978;5.330;2022-10-16T01:37:55;14.20;99.90
14188;DHT22;7175;51.978;5.330;2022-10-16T01:40:26;14.20;99.90
14188;DHT22;7175;51.978;5.330;2022-10-16T01:42:59;14.20;99.90
14188;DHT22;7175;51.978;5.330;2022-10-16T01:45:30;14.20;99.90
14188;DHT22;7175;51.978;5.330;2022-10-16T01:48:01;14.20;99.90
14188;DHT22;7175;51.978;5.330;2022-10-16T01:50:33;14.10;99.90
14188;DHT22;7175;51.978;5.330;2022-10-16T01:53:03;14.10;99.90
14188;DHT22;7175;51.978;5.330;2022-10-16T01:55:34;14.10;99.90
14188;DHT22;7175;51.978;5.330;2022-10-16T01:58:06;14.10;99.90
14188;DHT22;7175;51.978;5.330;2022-10-16T02:00:37;14.10;99.90
14188;DHT22;7175;51.978;5.330;2022-10-16T02:03:07;14.10;99.90
14188;DHT22;7175;51.978;5.330;2022-10-16T02:05:40;14.10;99.90
14188;DHT22;7175;51.978;5.330;2022-10-16T02:08:09;14.10;99.90
14188;DHT22;7175;51.978;5.330;2022-10-16T02:10:38;14.00;99.90
14188;DHT22;7175;51.978;5.330;2022-10-16T02:13:10;14.00;99.90
14188;DHT22;7175;51.978;5.330;2022-10-16T02:15:39;14.00;99.90
14188;DHT22;7175;51.978;5.330;2022-10-16T02:18:08;14.00;99.90
14188;DHT22;7175;51.978;5.330;2022-10-16T02:20:44;14.00;99.90
14188;DHT22;7175;51.978;5.330;2022-10-16T02:23:19;14.00;99.90
14188;DHT22;7175;51.978;5.330;2022-10-16T02:25:50;14.00;99.90
14188;DHT22;7175;51.978;5.330;2022-10-16T02:28:25;14.00;99.90
14188;DHT22;7175;51.978;5.330;2022-10-16T02:30:57;14.00;99.90
14188;DHT22;7175;51.978;5.330;2022-10-16T02:33:27;14.00;99.90
14188;DHT22;7175;51.978;5.330;2022-10-16T02:35:57;13.90;99.90
14188;DHT22;7175;51.978;5.330;2022-10-16T02:38:26;13.90;99.90
14188;DHT22;7175;51.978;5.330;2022-10-16T02:40:55;13.90;99.90
14188;DHT22;7175;51.978;5.330;2022-10-16T02:43:25;13.90;99.90
14188;DHT22;7175;51.978;5.330;2022-10-16T02:45:53;13.90;99.90
14188;DHT22;7175;51.978;5.330;2022-10-16T02:48:21;13.90;99.90
14188;DHT22;7175;51.978;5.330;2022-10-16T02:50:49;13.90;99.90
14188;DHT22;7175;51.978;5.330;2022-10-16T02:53:18;13.90;99.90
14188;DHT22;7175;51.978;5.330;2022-10-16T02:55:46;13.90;99.90
14188;DHT22;7175;51.978;5.330;2022-10-16T02:58:14;13.80;99.90
14188;DHT22;7175;51.978;5.330;2022-10-16T03:00:43;13.80;99.90
14188;DHT22;7175;51.978;5.330;2022-10-16T03:03:12;13.90;99.90
14188;DHT22;7175;51.978;5.330;2022-10-16T03:05:40;13.80;99.90
14188;DHT22;7175;51.978;5.330;2022-10-16T03:08:08;13.90;99.90
14188;DHT22;7175;51.978;5.330;2022-10-16T03:10:36;13.80;99.90
14188;DHT22;7175;51.978;5.330;2022-10-16T03:13:05;13.80;99.90
14188;DHT22;7175;51.978;5.330;2022-10-16T03:15:33;13.80;99.90
14188;DHT22;7175;51.978;5.330;2022-10-16T03:18:02;13.80;99.90
14188;DHT22;7175;51.978;5.330;2022-10-16T03:20:30;13.80;99.90
14188;DHT22;7175;51.978;5.330;2022-10-16T03:22:58;13.80;99.90
14188;DHT22;7175;51.978;5.330;2022-10-16T03:25:27;13.70;99.90
14188;DHT22;7175;51.978;5.330;2022-10-16T03:27:55;13.70;99.90
14188;DHT22;7175;51.978;5.330;2022-10-16T03:30:23;13.70;99.90
14188;DHT22;7175;51.978;5.330;2022-10-16T03:32:51;13.70;99.90
14188;DHT22;7175;51.978;5.330;2022-10-16T03:35:22;13.70;99.90
14188;DHT22;7175;51.978;5.330;2022-10-16T03:37:50;13.80;99.90
14188;DHT22;7175;51.978;5.330;2022-10-16T03:40:19;13.80;99.90
14188;DHT22;7175;51.978;5.330;2022-10-16T03:42:47;13.70;99.90
14188;DHT22;7175;51.978;5.330;2022-10-16T03:45:15;13.70;99.90
14188;DHT22;7175;51.978;5.330;2022-10-16T03:47:43;13.70;99.90
14188;DHT22;7175;51.978;5.330;2022-10-16T03:50:11;13.70;99.90
14188;DHT22;7175;51.978;5.330;2022-10-16T03:52:41;13.60;99.90
14188;DHT22;7175;51.978;5.330;2022-10-16T03:55:09;13.70;99.90
14188;DHT22;7175;51.978;5.330;2022-10-16T03:57:37;13.70;99.90
14188;DHT22;7175;51.978;5.330;2022-10-16T04:00:06;13.60;99.90
14188;DHT22;7175;51.978;5.330;2022-10-16T04:02:34;13.60;99.90
14188;DHT22;7175;51.978;5.330;2022-10-16T04:05:03;13.60;99.90
14188;DHT22;7175;51.978;5.330;2022-10-16T04:07:31;13.70;99.90
14188;DHT22;7175;51.978;5.330;2022-10-16T04:10:00;13.60;99.90
14188;DHT22;7175;51.978;5.330;2022-10-16T04:12:29;13.60;99.90
14188;DHT22;7175;51.978;5.330;2022-10-16T04:14:57;13.60;99.90
14188;DHT22;7175;51.978;5.330;2022-10-16T04:17:25;13.60;99.90
14188;DHT22;7175;51.978;5.330;2022-10-16T04:19:54;13.60;99.90
14188;DHT22;7175;51.978;5.330;2022-10-16T04:22:22;13.60;99.90
14188;DHT22;7175;51.978;5.330;2022-10-16T04:24:50;13.60;99.90
14188;DHT22;7175;51.978;5.330;2022-10-16T04:27:19;13.60;99.90
14188;DHT22;7175;51.978;5.330;2022-10-16T04:29:48;13.60;99.90
14188;DHT22;7175;51.978;5.330;2022-10-16T04:32:16;13.60;99.90
14188;DHT22;7175;51.978;5.330;2022-10-16T04:34:45;13.60;99.90
14188;DHT22;7175;51.978;5.330;2022-10-16T04:37:13;13.60;99.90
14188;DHT22;7175;51.978;5.330;2022-10-16T04:39:41;13.60;99.90
14188;DHT22;7175;51.978;5.330;2022-10-16T04:42:09;13.50;99.90
14188;DHT22;7175;51.978;5.330;2022-10-16T04:44:39;13.50;99.90
14188;DHT22;7175;51.978;5.330;2022-10-16T04:47:07;13.40;99.90
14188;DHT22;7175;51.978;5.330;2022-10-16T04:49:36;13.50;99.90
14188;DHT22;7175;51.978;5.330;2022-10-16T04:52:04;13.40;99.90
14188;DHT22;7175;51.978;5.330;2022-10-16T04:54:32;13.30;99.90
14188;DHT22;7175;51.978;5.330;2022-10-16T04:57:01;13.30;99.90
14188;DHT22;7175;51.978;5.330;2022-10-16T04:59:29;13.30;99.90
14188;DHT22;7175;51.978;5.330;2022-10-16T05:01:59;13.30;99.90
14188;DHT22;7175;51.978;5.330;2022-10-16T05:04:27;13.30;99.90
14188;DHT22;7175;51.978;5.330;2022-10-16T05:06:55;13.30;99.90
14188;DHT22;7175;51.978;5.330;2022-10-16T05:09:23;13.30;99.90
14188;DHT22;7175;51.978;5.330;2022-10-16T05:11:51;13.30;99.90
14188;DHT22;7175;51.978;5.330;2022-10-16T05:14:19;13.20;99.90
14188;DHT22;7175;51.978;5.330;2022-10-16T05:16:47;13.20;99.90
14188;DHT22;7175;51.978;5.330;2022-10-16T05:19:17;13.30;99.90
14188;DHT22;7175;51.978;5.330;2022-10-16T05:21:53;13.40;99.90
14188;DHT22;7175;51.978;5.330;2022-10-16T05:24:21;13.40;99.90
14188;DHT22;7175;51.978;5.330;2022-10-16T05:26:50;13.40;99.90
14188;DHT22;7175;51.978;5.330;2022-10-16T05:29:18;13.40;99.90
14188;DHT22;7175;51.978;5.330;2022-10-16T05:31:49;13.40;99.90
14188;DHT22;7175;51.978;5.330;2022-10-16T05:34:19;13.30;99.90
14188;DHT22;7175;51.978;5.330;2022-10-16T05:36:47;13.30;99.90
14188;DHT22;7175;51.978;5.330;2022-10-16T05:39:16;13.20;99.90
14188;DHT22;7175;51.978;5.330;2022-10-16T05:41:45;13.20;99.90
14188;DHT22;7175;51.978;5.330;2022-10-16T05:44:13;13.30;99.90
14188;DHT22;7175;51.978;5.330;2022-10-16T05:46:41;13.30;99.90
14188;DHT22;7175;51.978;5.330;2022-10-16T05:49:09;13.40;99.90
14188;DHT22;7175;51.978;5.330;2022-10-16T05:51:38;13.40;99.90
14188;DHT22;7175;51.978;5.330;2022-10-16T05:54:08;13.40;99.90
14188;DHT22;7175;51.978;5.330;2022-10-16T05:56:36;13.40;99.90
14188;DHT22;7175;51.978;5.330;2022-10-16T05:59:05;13.50;99.90
14188;DHT22;7175;51.978;5.330;2022-10-16T06:01:33;13.50;99.90
14188;DHT22;7175;51.978;5.330;2022-10-16T06:04:02;13.50;99.90
14188;DHT22;7175;51.978;5.330;2022-10-16T06:06:30;13.60;99.90
14188;DHT22;7175;51.978;5.330;2022-10-16T06:09:00;13.60;99.90
14188;DHT22;7175;51.978;5.330;2022-10-16T06:11:30;13.60;99.90
14188;DHT22;7175;51.978;5.330;2022-10-16T06:14:01;13.60;99.90
14188;DHT22;7175;51.978;5.330;2022-10-16T06:16:34;13.70;99.90
14188;DHT22;7175;51.978;5.330;2022-10-16T06:19:03;13.70;99.90
14188;DHT22;7175;51.978;5.330;2022-10-16T06:21:33;13.70;99.90
14188;DHT22;7175;51.978;5.330;2022-10-16T06:24:03;13.70;99.90
14188;DHT22;7175;51.978;5.330;2022-10-16T06:26:31;13.70;99.90
14188;DHT22;7175;51.978;5.330;2022-10-16T06:29:00;13.70;99.90
14188;DHT22;7175;51.978;5.330;2022-10-16T06:31:29;13.70;99.90
14188;DHT22;7175;51.978;5.330;2022-10-16T06:33:58;13.70;99.90
14188;DHT22;7175;51.978;5.330;2022-10-16T06:36:27;13.70;99.90
14188;DHT22;7175;51.978;5.330;2022-10-16T06:38:55;13.70;99.90
14188;DHT22;7175;51.978;5.330;2022-10-16T06:41:24;13.80;99.90
14188;DHT22;7175;51.978;5.330;2022-10-16T06:43:52;13.80;99.90
14188;DHT22;7175;51.978;5.330;2022-10-16T06:46:22;13.80;99.90
14188;DHT22;7175;51.978;5.330;2022-10-16T06:48:51;13.90;99.90
14188;DHT22;7175;51.978;5.330;2022-10-16T06:51:21;13.90;99.90
14188;DHT22;7175;51.978;5.330;2022-10-16T06:53:51;13.90;99.90
14188;DHT22;7175;51.978;5.330;2022-10-16T06:56:36;14.00;99.90
14188;DHT22;7175;51.978;5.330;2022-10-16T06:59:04;13.90;99.90
14188;DHT22;7175;51.978;5.330;2022-10-16T07:01:32;14.00;99.90
14188;DHT22;7175;51.978;5.330;2022-10-16T07:04:01;14.00;99.90
14188;DHT22;7175;51.978;5.330;2022-10-16T07:06:32;14.00;99.90
14188;DHT22;7175;51.978;5.330;2022-10-16T07:09:05;14.00;99.90
14188;DHT22;7175;51.978;5.330;2022-10-16T07:11:35;14.10;99.90
14188;DHT22;7175;51.978;5.330;2022-10-16T07:14:04;14.10;99.90
14188;DHT22;7175;51.978;5.330;2022-10-16T07:16:32;14.10;99.90
14188;DHT22;7175;51.978;5.330;2022-10-16T07:19:02;14.10;99.90
14188;DHT22;7175;51.978;5.330;2022-10-16T07:21:32;14.10;99.90
14188;DHT22;7175;51.978;5.330;2022-10-16T07:24:04;14.10;99.90
14188;DHT22;7175;51.978;5.330;2022-10-16T07:26:36;14.10;99.90
14188;DHT22;7175;51.978;5.330;2022-10-16T07:29:07;14.20;99.90
14188;DHT22;7175;51.978;5.330;2022-10-16T07:31:36;14.20;99.90
14188;DHT22;7175;51.978;5.330;2022-10-16T07:34:04;14.20;99.90
14188;DHT22;7175;51.978;5.330;2022-10-16T07:36:33;14.20;99.90
14188;DHT22;7175;51.978;5.330;2022-10-16T07:39:01;14.30;99.90
14188;DHT22;7175;51.978;5.330;2022-10-16T07:41:29;14.30;99.90
14188;DHT22;7175;51.978;5.330;2022-10-16T07:44:00;14.40;99.90
14188;DHT22;7175;51.978;5.330;2022-10-16T07:46:29;14.40;99.90
14188;DHT22;7175;51.978;5.330;2022-10-16T07:48:57;14.40;99.90
14188;DHT22;7175;51.978;5.330;2022-10-16T07:51:26;14.30;99.90
14188;DHT22;7175;51.978;5.330;2022-10-16T07:53:54;14.30;99.90
14188;DHT22;7175;51.978;5.330;2022-10-16T07:56:22;14.40;99.90
14188;DHT22;7175;51.978;5.330;2022-10-16T07:58:51;14.60;99.90
14188;DHT22;7175;51.978;5.330;2022-10-16T08:01:21;14.60;99.90
14188;DHT22;7175;51.978;5.330;2022-10-16T08:03:51;14.80;99.90
14188;DHT22;7175;51.978;5.330;2022-10-16T08:06:21;14.90;99.90
14188;DHT22;7175;51.978;5.330;2022-10-16T08:08:54;15.00;99.90
14188;DHT22;7175;51.978;5.330;2022-10-16T08:11:22;15.00;99.90
14188;DHT22;7175;51.978;5.330;2022-10-16T08:13:51;15.10;99.90
14188;DHT22;7175;51.978;5.330;2022-10-16T08:16:21;15.20;99.90
14188;DHT22;7175;51.978;5.330;2022-10-16T08:18:49;15.30;99.90
14188;DHT22;7175;51.978;5.330;2022-10-16T08:21:20;15.40;99.90
14188;DHT22;7175;51.978;5.330;2022-10-16T08:23:50;15.50;99.90
14188;DHT22;7175;51.978;5.330;2022-10-16T08:26:24;15.50;99.90
14188;DHT22;7175;51.978;5.330;2022-10-16T08:28:53;15.60;99.90
14188;DHT22;7175;51.978;5.330;2022-10-16T08:31:23;15.70;99.90
14188;DHT22;7175;51.978;5.330;2022-10-16T08:33:53;15.70;99.90
14188;DHT22;7175;51.978;5.330;2022-10-16T08:36:21;15.80;99.90
14188;DHT22;7175;51.978;5.330;2022-10-16T08:38:50;15.80;99.90
14188;DHT22;7175;51.978;5.330;2022-10-16T08:44:27;15.90;99.90
14188;DHT22;7175;51.978;5.330;2022-10-16T08:47:03;16.10;99.90
14188;DHT22;7175;51.978;5.330;2022-10-16T08:49:37;16.10;99.90
14188;DHT22;7175;51.978;5.330;2022-10-16T08:52:11;16.20;99.90
14188;DHT22;7175;51.978;5.330;2022-10-16T08:54:44;16.20;99.90
14188;DHT22;7175;51.978;5.330;2022-10-16T08:57:18;16.20;99.90
14188;DHT22;7175;51.978;5.330;2022-10-16T08:59:51;16.40;99.90
14188;DHT22;7175;51.978;5.330;2022-10-16T09:02:28;16.50;99.90
14188;DHT22;7175;51.978;5.330;2022-10-16T09:05:09;16.50;99.90
14188;DHT22;7175;51.978;5.330;2022-10-16T09:07:50;16.50;99.90
14188;DHT22;7175;51.978;5.330;2022-10-16T09:10:27;16.50;99.90
14188;DHT22;7175;51.978;5.330;2022-10-16T09:13:06;16.60;99.90
14188;DHT22;7175;51.978;5.330;2022-10-16T09:15:43;16.70;99.90
14188;DHT22;7175;51.978;5.330;2022-10-16T09:18:21;16.80;99.90
14188;DHT22;7175;51.978;5.330;2022-10-16T09:21:04;16.90;99.90
14188;DHT22;7175;51.978;5.330;2022-10-16T09:23:35;17.10;99.90
14188;DHT22;7175;51.978;5.330;2022-10-16T09:26:08;17.20;99.90
14188;DHT22;7175;51.978;5.330;2022-10-16T09:28:37;17.10;99.90
14188;DHT22;7175;51.978;5.330;2022-10-16T09:31:13;17.10;99.90
14188;DHT22;7175;51.978;5.330;2022-10-16T09:33:47;17.10;99.90
14188;DHT22;7175;51.978;5.330;2022-10-16T09:36:16;17.20;99.90
14188;DHT22;7175;51.978;5.330;2022-10-16T09:38:45;17.50;99.90
14188;DHT22;7175;51.978;5.330;2022-10-16T09:41:19;17.40;99.90
14188;DHT22;7175;51.978;5.330;2022-10-16T09:43:52;17.50;99.90
14188;DHT22;7175;51.978;5.330;2022-10-16T09:46:25;17.40;99.90
14188;DHT22;7175;51.978;5.330;2022-10-16T09:48:57;17.60;99.90
14188;DHT22;7175;51.978;5.330;2022-10-16T09:51:28;17.50;99.90
14188;DHT22;7175;51.978;5.330;2022-10-16T09:53:59;17.40;99.90
14188;DHT22;7175;51.978;5.330;2022-10-16T09:56:29;17.50;99.90
14188;DHT22;7175;51.978;5.330;2022-10-16T09:59:01;17.70;99.90
14188;DHT22;7175;51.978;5.330;2022-10-16T10:01:36;17.80;99.90
14188;DHT22;7175;51.978;5.330;2022-10-16T10:04:07;17.90;99.90
14188;DHT22;7175;51.978;5.330;2022-10-16T10:06:40;18.10;99.90
14188;DHT22;7175;51.978;5.330;2022-10-16T10:09:20;18.30;99.90
14188;DHT22;7175;51.978;5.330;2022-10-16T10:11:51;18.10;99.90
14188;DHT22;7175;51.978;5.330;2022-10-16T10:14:22;17.90;99.90
14188;DHT22;7175;51.978;5.330;2022-10-16T10:16:52;18.10;99.90
14188;DHT22;7175;51.978;5.330;2022-10-16T10:19:23;18.10;99.90
14188;DHT22;7175;51.978;5.330;2022-10-16T10:21:57;18.00;99.90
14188;DHT22;7175;51.978;5.330;2022-10-16T10:24:25;18.20;99.90
14188;DHT22;7175;51.978;5.330;2022-10-16T10:26:59;18.60;99.90
14188;DHT22;7175;51.978;5.330;2022-10-16T10:29:44;18.70;99.90
14188;DHT22;7175;51.978;5.330;2022-10-16T10:32:23;18.80;99.90
14188;DHT22;7175;51.978;5.330;2022-10-16T10:35:13;18.60;99.90
14188;DHT22;7175;51.978;5.330;2022-10-16T10:37:59;18.20;99.90
14188;DHT22;7175;51.978;5.330;2022-10-16T10:40:40;18.30;99.90
14188;DHT22;7175;51.978;5.330;2022-10-16T10:43:24;18.70;99.90
14188;DHT22;7175;51.978;5.330;2022-10-16T10:45:58;19.00;99.90
14188;DHT22;7175;51.978;5.330;2022-10-16T10:48:54;19.00;99.90
14188;DHT22;7175;51.978;5.330;2022-10-16T10:51:34;19.00;99.90
14188;DHT22;7175;51.978;5.330;2022-10-16T10:54:14;18.90;99.90
14188;DHT22;7175;51.978;5.330;2022-10-16T10:56:49;19.00;99.90
14188;DHT22;7175;51.978;5.330;2022-10-16T11:02:36;19.10;99.90
14188;DHT22;7175;51.978;5.330;2022-10-16T11:05:31;19.40;99.90
14188;DHT22;7175;51.978;5.330;2022-10-16T11:08:08;19.50;99.90
14188;DHT22;7175;51.978;5.330;2022-10-16T11:10:44;19.30;99.90
14188;DHT22;7175;51.978;5.330;2022-10-16T11:13:26;19.50;99.90
14188;DHT22;7175;51.978;5.330;2022-10-16T11:16:00;19.80;99.90
14188;DHT22;7175;51.978;5.330;2022-10-16T11:18:33;20.00;99.90
14188;DHT22;7175;51.978;5.330;2022-10-16T11:21:10;19.90;99.90
14188;DHT22;7175;51.978;5.330;2022-10-16T11:23:44;19.50;99.90
14188;DHT22;7175;51.978;5.330;2022-10-16T11:26:18;19.60;99.90
14188;DHT22;7175;51.978;5.330;2022-10-16T11:28:49;19.70;99.90
14188;DHT22;7175;51.978;5.330;2022-10-16T11:31:22;19.50;99.90
14188;DHT22;7175;51.978;5.330;2022-10-16T11:33:57;19.00;99.90
14188;DHT22;7175;51.978;5.330;2022-10-16T11:36:36;18.90;99.90
14188;DHT22;7175;51.978;5.330;2022-10-16T11:39:17;19.40;99.90
14188;DHT22;7175;51.978;5.330;2022-10-16T11:41:49;19.60;99.90
14188;DHT22;7175;51.978;5.330;2022-10-16T11:44:33;19.40;99.90
14188;DHT22;7175;51.978;5.330;2022-10-16T11:47:10;19.50;99.90
14188;DHT22;7175;51.978;5.330;2022-10-16T11:50:09;19.80;99.90
14188;DHT22;7175;51.978;5.330;2022-10-16T11:52:46;19.80;99.90
14188;DHT22;7175;51.978;5.330;2022-10-16T11:55:22;20.10;99.90
14188;DHT22;7175;51.978;5.330;2022-10-16T11:57:54;20.30;99.90
14188;DHT22;7175;51.978;5.330;2022-10-16T12:00:28;20.30;99.90
14188;DHT22;7175;51.978;5.330;2022-10-16T12:03:03;20.20;99.90
14188;DHT22;7175;51.978;5.330;2022-10-16T12:05:52;20.20;99.90
14188;DHT22;7175;51.978;5.330;2022-10-16T12:08:23;20.30;99.90
14188;DHT22;7175;51.978;5.330;2022-10-16T12:10:53;20.40;99.90
14188;DHT22;7175;51.978;5.330;2022-10-16T12:13:33;19.90;99.90
14188;DHT22;7175;51.978;5.330;2022-10-16T12:16:23;20.10;99.90
14188;DHT22;7175;51.978;5.330;2022-10-16T12:19:09;20.20;99.90
14188;DHT22;7175;51.978;5.330;2022-10-16T12:21:39;20.30;99.90
14188;DHT22;7175;51.978;5.330;2022-10-16T12:24:21;20.50;99.90
14188;DHT22;7175;51.978;5.330;2022-10-16T12:26:52;20.60;99.90
14188;DHT22;7175;51.978;5.330;2022-10-16T12:29:32;20.50;99.90
14188;DHT22;7175;51.978;5.330;2022-10-16T12:32:02;20.60;99.90
14188;DHT22;7175;51.978;5.330;2022-10-16T12:34:37;20.50;99.90
14188;DHT22;7175;51.978;5.330;2022-10-16T12:37:13;20.60;99.90
14188;DHT22;7175;51.978;5.330;2022-10-16T12:39:42;20.50;99.90
14188;DHT22;7175;51.978;5.330;2022-10-16T12:42:23;20.60;99.90
14188;DHT22;7175;51.978;5.330;2022-10-16T12:44:58;20.50;99.90
14188;DHT22;7175;51.978;5.330;2022-10-16T12:47:37;20.10;99.90
14188;DHT22;7175;51.978;5.330;2022-10-16T12:50:27;20.20;99.90
14188;DHT22;7175;51.978;5.330;2022-10-16T12:52:57;19.90;99.90
14188;DHT22;7175;51.978;5.330;2022-10-16T12:55:26;20.40;99.90
14188;DHT22;7175;51.978;5.330;2022-10-16T13:01:09;21.00;99.90
14188;DHT22;7175;51.978;5.330;2022-10-16T13:03:49;21.40;99.90
14188;DHT22;7175;51.978;5.330;2022-10-16T13:06:30;21.60;99.90
14188;DHT22;7175;51.978;5.330;2022-10-16T13:12:15;21.20;99.90
14188;DHT22;7175;51.978;5.330;2022-10-16T13:15:06;20.80;99.90
14188;DHT22;7175;51.978;5.330;2022-10-16T13:17:45;20.50;99.90
14188;DHT22;7175;51.978;5.330;2022-10-16T13:20:21;20.40;99.90
14188;DHT22;7175;51.978;5.330;2022-10-16T13:22:56;20.40;99.90
14188;DHT22;7175;51.978;5.330;2022-10-16T13:25:34;20.30;99.90
14188;DHT22;7175;51.978;5.330;2022-10-16T13:28:07;20.40;99.90
14188;DHT22;7175;51.978;5.330;2022-10-16T13:30:40;20.30;99.90
14188;DHT22;7175;51.978;5.330;2022-10-16T13:33:14;20.20;99.90
14188;DHT22;7175;51.978;5.330;2022-10-16T13:35:48;20.00;99.90
14188;DHT22;7175;51.978;5.330;2022-10-16T13:38:19;19.80;99.90
14188;DHT22;7175;51.978;5.330;2022-10-16T13:40:53;19.70;99.90
14188;DHT22;7175;51.978;5.330;2022-10-16T13:43:24;19.70;99.90
14188;DHT22;7175;51.978;5.330;2022-10-16T13:45:57;19.60;99.90
14188;DHT22;7175;51.978;5.330;2022-10-16T13:48:25;19.70;99.90
14188;DHT22;7175;51.978;5.330;2022-10-16T13:51:01;19.70;99.90
14188;DHT22;7175;51.978;5.330;2022-10-16T13:53:32;19.70;99.90
14188;DHT22;7175;51.978;5.330;2022-10-16T13:56:03;19.60;99.90
14188;DHT22;7175;51.978;5.330;2022-10-16T13:58:31;19.70;99.90
14188;DHT22;7175;51.978;5.330;2022-10-16T14:01:02;19.60;99.90
14188;DHT22;7175;51.978;5.330;2022-10-16T14:03:33;19.50;99.90
14188;DHT22;7175;51.978;5.330;2022-10-16T14:06:04;19.40;99.90
14188;DHT22;7175;51.978;5.330;2022-10-16T14:08:36;19.30;99.90
14188;DHT22;7175;51.978;5.330;2022-10-16T14:11:04;19.40;99.90
14188;DHT22;7175;51.978;5.330;2022-10-16T14:13:36;19.30;99.90
14188;DHT22;7175;51.978;5.330;2022-10-16T14:16:09;19.30;99.90
14188;DHT22;7175;51.978;5.330;2022-10-16T14:18:39;19.30;99.90
14188;DHT22;7175;51.978;5.330;2022-10-16T14:21:12;19.20;99.90
14188;DHT22;7175;51.978;5.330;2022-10-16T14:23:42;19.20;99.90
14188;DHT22;7175;51.978;5.330;2022-10-16T14:26:15;19.10;99.90
14188;DHT22;7175;51.978;5.330;2022-10-16T14:28:46;19.20;99.90
14188;DHT22;7175;51.978;5.330;2022-10-16T14:31:29;19.10;99.90
14188;DHT22;7175;51.978;5.330;2022-10-16T14:33:58;19.10;99.90
14188;DHT22;7175;51.978;5.330;2022-10-16T14:36:27;19.10;99.90
14188;DHT22;7175;51.978;5.330;2022-10-16T14:39:01;19.10;99.90
14188;DHT22;7175;51.978;5.330;2022-10-16T14:41:31;19.00;99.90
14188;DHT22;7175;51.978;5.330;2022-10-16T14:44:03;18.90;99.90
14188;DHT22;7175;51.978;5.330;2022-10-16T14:46:35;18.80;99.90
14188;DHT22;7175;51.978;5.330;2022-10-16T14:49:14;18.80;99.90
14188;DHT22;7175;51.978;5.330;2022-10-16T14:51:43;18.70;99.90
14188;DHT22;7175;51.978;5.330;2022-10-16T14:54:13;18.70;99.90
14188;DHT22;7175;51.978;5.330;2022-10-16T14:56:46;18.60;99.90
14188;DHT22;7175;51.978;5.330;2022-10-16T14:59:17;18.70;99.90
14188;DHT22;7175;51.978;5.330;2022-10-16T15:01:48;18.70;99.90
14188;DHT22;7175;51.978;5.330;2022-10-16T15:04:16;18.60;99.90
14188;DHT22;7175;51.978;5.330;2022-10-16T15:06:45;18.60;99.90
14188;DHT22;7175;51.978;5.330;2022-10-16T15:09:14;18.60;99.90
14188;DHT22;7175;51.978;5.330;2022-10-16T15:11:42;18.60;99.90
14188;DHT22;7175;51.978;5.330;2022-10-16T15:14:11;18.50;99.90
14188;DHT22;7175;51.978;5.330;2022-10-16T15:16:40;18.50;99.90
14188;DHT22;7175;51.978;5.330;2022-10-16T15:19:10;18.40;99.90
14188;DHT22;7175;51.978;5.330;2022-10-16T15:21:38;18.40;99.90
14188;DHT22;7175;51.978;5.330;2022-10-16T15:24:11;18.40;99.90
14188;DHT22;7175;51.978;5.330;2022-10-16T15:26:45;18.30;99.90
14188;DHT22;7175;51.978;5.330;2022-10-16T15:29:14;18.30;99.90
14188;DHT22;7175;51.978;5.330;2022-10-16T15:31:42;18.20;99.90
14188;DHT22;7175;51.978;5.330;2022-10-16T15:34:12;18.10;99.90
14188;DHT22;7175;51.978;5.330;2022-10-16T15:36:40;18.00;99.90
14188;DHT22;7175;51.978;5.330;2022-10-16T15:39:12;17.90;99.90
14188;DHT22;7175;51.978;5.330;2022-10-16T15:41:41;17.80;99.90
14188;DHT22;7175;51.978;5.330;2022-10-16T15:44:10;17.70;99.90
14188;DHT22;7175;51.978;5.330;2022-10-16T15:46:38;17.70;99.90
14188;DHT22;7175;51.978;5.330;2022-10-16T15:49:06;17.60;99.90
14188;DHT22;7175;51.978;5.330;2022-10-16T15:51:38;17.50;99.90
14188;DHT22;7175;51.978;5.330;2022-10-16T15:54:06;17.50;99.90
14188;DHT22;7175;51.978;5.330;2022-10-16T15:56:34;17.40;99.90
14188;DHT22;7175;51.978;5.330;2022-10-16T15:59:04;17.40;99.90
14188;DHT22;7175;51.978;5.330;2022-10-16T16:01:32;17.40;99.90
14188;DHT22;7175;51.978;5.330;2022-10-16T16:04:01;17.30;99.90
14188;DHT22;7175;51.978;5.330;2022-10-16T16:06:47;17.30;99.90
14188;DHT22;7175;51.978;5.330;2022-10-16T16:09:15;17.20;99.90
14188;DHT22;7175;51.978;5.330;2022-10-16T16:11:43;17.10;99.90
14188;DHT22;7175;51.978;5.330;2022-10-16T16:14:13;17.10;99.90
14188;DHT22;7175;51.978;5.330;2022-10-16T16:16:41;17.00;99.90
14188;DHT22;7175;51.978;5.330;2022-10-16T16:19:09;17.00;99.90
14188;DHT22;7175;51.978;5.330;2022-10-16T16:21:38;17.00;99.90
14188;DHT22;7175;51.978;5.330;2022-10-16T16:24:08;17.00;99.90
14188;DHT22;7175;51.978;5.330;2022-10-16T16:26:36;16.90;99.90